Time;durP1;ratioP1;P1;durP2;ratioP2;P2;SDS_P1;SDS_P2;PMS_P1;PMS_P2;Temp;Humidity;BMP_temperature;BMP_pressure;BME280_temperature;BME280_humidity;BME280_pressure;Samples;Min_cycle;Max_cycle;Signal;HPM_P1;HPM_P2
2021/09/16 00:02:18;0.00;0.00;0.62;0.00;0.00;0.62;8.20;5.40;;;25.20;46.00;;;;;;2253623;61;20403;-69
2021/09/16 00:05:03;0.00;0.00;0.62;0.00;0.00;0.62;5.47;4.97;;;25.20;46.00;;;;;;2253213;61;20498;-70
2021/09/16 00:07:49;0.00;0.00;0.62;0.00;0.00;0.62;6.10;5.50;;;25.20;46.00;;;;;;2253607;61;20371;-70
2021/09/16 00:10:34;0.00;0.00;0.62;0.00;0.00;0.62;5.73;5.20;;;25.20;46.00;;;;;;2253479;61;20597;-70
2021/09/16 00:13:19;0.00;0.00;0.62;0.00;0.00;0.62;6.40;5.80;;;25.10;45.90;;;;;;2253561;61;20479;-71
2021/09/16 00:16:04;0.00;0.00;0.62;0.00;0.00;0.62;6.40;5.80;;;25.10;45.80;;;;;;2253520;61;20408;-70
2021/09/16 00:18:49;0.00;0.00;0.62;0.00;0.00;0.62;6.00;5.40;;;25.10;45.80;;;;;;2252958;61;20744;-69
2021/09/16 00:21:33;0.00;0.00;0.62;0.00;0.00;0.62;5.93;4.70;;;25.10;45.80;;;;;;2253819;61;20364;-70
2021/09/16 00:24:19;0.00;0.00;0.62;0.00;0.00;0.62;5.97;4.80;;;25.10;45.90;;;;;;2253575;61;20364;-69
2021/09/16 00:27:04;0.00;0.00;0.62;0.00;0.00;0.62;10.43;5.20;;;25.00;45.90;;;;;;2253071;61;20419;-71
2021/09/16 00:29:49;0.00;0.00;0.62;0.00;0.00;0.62;7.93;4.40;;;25.00;45.90;;;;;;2253624;61;20403;-69
2021/09/16 00:32:33;0.00;0.00;0.62;0.00;0.00;0.62;5.97;5.33;;;25.00;46.00;;;;;;2253467;61;20384;-71
2021/09/16 00:35:18;0.00;0.00;0.62;0.00;0.00;0.62;5.03;4.57;;;25.00;46.00;;;;;;2253383;61;20379;-71
2021/09/16 00:38:02;0.00;0.00;0.62;0.00;0.00;0.62;4.70;3.93;;;25.00;46.00;;;;;;2253489;61;20555;-70
2021/09/16 00:40:48;0.00;0.00;0.62;0.00;0.00;0.62;6.10;4.50;;;25.00;46.00;;;;;;2253506;61;20367;-70
2021/09/16 00:43:33;0.00;0.00;0.62;0.00;0.00;0.62;5.53;3.80;;;25.00;45.90;;;;;;2253668;61;20380;-70
2021/09/16 00:46:18;0.00;0.00;0.62;0.00;0.00;0.62;4.60;4.00;;;25.00;45.80;;;;;;2253367;61;20432;-70
2021/09/16 00:49:04;0.00;0.00;0.62;0.00;0.00;0.62;4.97;4.20;;;24.90;45.60;;;;;;2251620;61;20375;-70
2021/09/16 00:51:48;0.00;0.00;0.62;0.00;0.00;0.62;7.00;4.00;;;24.90;45.60;;;;;;2253539;61;20359;-70
2021/09/16 00:54:34;0.00;0.00;0.62;0.00;0.00;0.62;4.70;3.83;;;24.90;45.60;;;;;;2253495;61;20352;-70
2021/09/16 00:57:23;0.00;0.00;0.62;0.00;0.00;0.62;4.17;3.40;;;24.90;45.60;;;;;;2253533;61;20581;-71
2021/09/16 01:00:10;0.00;0.00;0.62;0.00;0.00;0.62;5.13;3.53;;;24.80;45.70;;;;;;2253254;61;20369;-71
2021/09/16 01:02:54;0.00;0.00;0.62;0.00;0.00;0.62;4.93;3.10;;;24.80;45.70;;;;;;2253041;61;20411;-69
2021/09/16 01:05:39;0.00;0.00;0.62;0.00;0.00;0.62;6.20;2.73;;;24.80;45.80;;;;;;2253626;61;20430;-70
2021/09/16 01:08:24;0.00;0.00;0.62;0.00;0.00;0.62;4.07;2.90;;;24.80;45.90;;;;;;2253264;61;20708;-70
2021/09/16 01:11:09;0.00;0.00;0.62;0.00;0.00;0.62;3.87;2.50;;;24.80;46.00;;;;;;2253000;61;20406;-71
2021/09/16 01:13:57;0.00;0.00;0.62;0.00;0.00;0.62;3.60;2.90;;;24.80;46.00;;;;;;2253208;61;20364;-71
2021/09/16 01:16:42;0.00;0.00;0.62;0.00;0.00;0.62;4.00;3.03;;;24.80;46.00;;;;;;2253630;61;20388;-70
2021/09/16 01:19:27;0.00;0.00;0.62;0.00;0.00;0.62;7.40;3.60;;;24.80;45.90;;;;;;2253259;61;20375;-70
2021/09/16 01:22:18;0.00;0.00;0.62;0.00;0.00;0.62;5.30;2.37;;;24.80;45.80;;;;;;2253237;61;20429;-71
2021/09/16 01:25:05;0.00;0.00;0.62;0.00;0.00;0.62;5.17;2.70;;;24.80;45.90;;;;;;2253306;61;20427;-69
2021/09/16 01:27:50;0.00;0.00;0.62;0.00;0.00;0.62;4.23;2.80;;;24.80;45.90;;;;;;2253512;61;20379;-70
2021/09/16 01:30:35;0.00;0.00;0.62;0.00;0.00;0.62;2.60;2.33;;;24.80;45.90;;;;;;2253839;61;20387;-70
2021/09/16 01:33:19;0.00;0.00;0.62;0.00;0.00;0.62;2.27;2.07;;;24.80;45.90;;;;;;2253728;61;20359;-70
2021/09/16 01:36:09;0.00;0.00;0.62;0.00;0.00;0.62;2.80;2.20;;;24.90;46.00;;;;;;2253919;61;20740;-70
2021/09/16 01:38:54;0.00;0.00;0.62;0.00;0.00;0.62;3.17;2.50;;;24.90;46.00;;;;;;2254237;61;20348;-70
2021/09/16 01:41:40;0.00;0.00;0.62;0.00;0.00;0.62;2.80;1.60;;;24.90;46.00;;;;;;2254040;61;20587;-70
2021/09/16 01:44:25;0.00;0.00;0.62;0.00;0.00;0.62;4.27;2.27;;;24.90;45.90;;;;;;2253712;61;20720;-70
2021/09/16 01:47:09;0.00;0.00;0.62;0.00;0.00;0.62;3.20;2.00;;;24.90;45.90;;;;;;2253966;61;20720;-71
2021/09/16 01:49:54;0.00;0.00;0.62;0.00;0.00;0.62;2.80;1.53;;;25.00;45.90;;;;;;2254078;61;20777;-70
2021/09/16 01:52:39;0.00;0.00;0.62;0.00;0.00;0.62;1.73;1.37;;;25.00;45.80;;;;;;2253908;61;20399;-70
2021/09/16 01:55:23;0.00;0.00;0.62;0.00;0.00;0.62;3.60;1.80;;;25.00;45.80;;;;;;2253544;61;20387;-70
2021/09/16 01:58:09;0.00;0.00;0.62;0.00;0.00;0.62;2.57;1.53;;;25.00;45.60;;;;;;2254021;61;20360;-70
2021/09/16 02:00:54;0.00;0.00;0.62;0.00;0.00;0.62;2.27;1.43;;;25.00;45.60;;;;;;2254100;61;20460;-70
2021/09/16 02:03:38;0.00;0.00;0.62;0.00;0.00;0.62;3.47;1.40;;;25.10;45.50;;;;;;2253508;61;20380;-70
2021/09/16 02:06:23;0.00;0.00;0.62;0.00;0.00;0.62;4.33;1.53;;;25.10;45.40;;;;;;2254126;61;20464;-71
2021/09/16 02:09:08;0.00;0.00;0.62;0.00;0.00;0.62;1.60;1.27;;;25.10;45.40;;;;;;2253955;61;20387;-70
2021/09/16 02:11:53;0.00;0.00;0.62;0.00;0.00;0.62;3.03;1.70;;;25.10;45.40;;;;;;2253991;61;20367;-70
2021/09/16 02:14:39;0.00;0.00;0.62;0.00;0.00;0.62;2.47;1.40;;;25.10;45.40;;;;;;2253788;61;20410;-71
2021/09/16 02:17:23;0.00;0.00;0.62;0.00;0.00;0.62;2.67;1.40;;;25.10;45.30;;;;;;2253590;61;21078;-70
2021/09/16 02:20:09;0.00;0.00;0.62;0.00;0.00;0.62;2.73;1.40;;;25.10;45.20;;;;;;2254181;61;20395;-69
2021/09/16 02:22:54;0.00;0.00;0.62;0.00;0.00;0.62;1.70;1.20;;;25.10;45.20;;;;;;2254086;61;20367;-69
2021/09/16 02:25:38;0.00;0.00;0.62;0.00;0.00;0.62;2.50;1.50;;;25.20;45.20;;;;;;2253430;61;20660;-70
2021/09/16 02:28:23;0.00;0.00;0.62;0.00;0.00;0.62;2.60;1.43;;;25.20;45.20;;;;;;2253401;61;20603;-70
2021/09/16 02:31:09;0.00;0.00;0.62;0.00;0.00;0.62;1.70;1.07;;;25.20;45.20;;;;;;2253918;61;20351;-70
2021/09/16 02:33:53;0.00;0.00;0.62;0.00;0.00;0.62;3.30;1.13;;;25.20;45.00;;;;;;2253878;61;20371;-70
2021/09/16 02:36:38;0.00;0.00;0.62;0.00;0.00;0.62;1.30;0.80;;;25.20;45.00;;;;;;2256136;61;20742;-70
2021/09/16 02:39:22;0.00;0.00;0.62;0.00;0.00;0.62;2.13;1.40;;;25.20;44.90;;;;;;2253516;61;20363;-70
2021/09/16 02:42:07;0.00;0.00;0.62;0.00;0.00;0.62;2.43;1.50;;;25.30;45.00;;;;;;2254065;61;20367;-71
2021/09/16 02:44:51;0.00;0.00;0.62;0.00;0.00;0.62;1.40;1.00;;;25.30;45.00;;;;;;2253954;61;20587;-70
2021/09/16 02:47:38;0.00;0.00;0.62;0.00;0.00;0.62;2.10;1.27;;;25.30;44.90;;;;;;2253564;61;20359;-70
2021/09/16 02:50:23;0.00;0.00;0.62;0.00;0.00;0.62;1.90;1.00;;;25.30;44.90;;;;;;2253878;61;20377;-70
2021/09/16 02:53:07;0.00;0.00;0.62;0.00;0.00;0.62;2.33;1.10;;;25.40;44.80;;;;;;2253872;61;20712;-69
2021/09/16 02:55:52;0.00;0.00;0.62;0.00;0.00;0.62;2.60;1.40;;;25.40;44.70;;;;;;2253818;61;20419;-70
2021/09/16 02:58:36;0.00;0.00;0.62;0.00;0.00;0.62;1.60;1.13;;;25.40;44.70;;;;;;2253920;61;20375;-70
2021/09/16 03:01:21;0.00;0.00;0.62;0.00;0.00;0.62;5.70;1.73;;;25.40;44.70;;;;;;2253770;61;20388;-70
2021/09/16 03:04:06;0.00;0.00;0.62;0.00;0.00;0.62;2.33;1.00;;;25.40;44.60;;;;;;2253994;61;20360;-69
2021/09/16 03:06:51;0.00;0.00;0.62;0.00;0.00;0.62;1.90;1.17;;;25.40;44.50;;;;;;2253829;61;20391;-70
2021/09/16 03:09:35;0.00;0.00;0.62;0.00;0.00;0.62;4.47;1.23;;;25.40;44.40;;;;;;2253507;61;20399;-70
2021/09/16 03:12:20;0.00;0.00;0.62;0.00;0.00;0.62;2.00;1.20;;;25.40;44.30;;;;;;2253729;61;20368;-70
2021/09/16 03:15:06;0.00;0.00;0.62;0.00;0.00;0.62;1.50;1.00;;;25.40;44.30;;;;;;2253796;61;20496;-70
2021/09/16 03:17:51;0.00;0.00;0.62;0.00;0.00;0.62;1.77;1.00;;;25.40;44.30;;;;;;2253819;61;20580;-70
2021/09/16 03:20:37;0.00;0.00;0.62;0.00;0.00;0.62;1.60;1.00;;;25.40;44.30;;;;;;2253551;61;20440;-70
2021/09/16 03:23:22;0.00;0.00;0.62;0.00;0.00;0.62;2.13;0.93;;;25.40;44.30;;;;;;2253708;61;20360;-70
2021/09/16 03:26:06;0.00;0.00;0.62;0.00;0.00;0.62;2.70;0.97;;;25.40;44.20;;;;;;2253769;61;20438;-69
2021/09/16 03:28:51;0.00;0.00;0.62;0.00;0.00;0.62;3.80;2.00;;;25.40;44.10;;;;;;2253563;61;20415;-69
2021/09/16 03:31:35;0.00;0.00;0.62;0.00;0.00;0.62;1.90;1.20;;;25.40;43.90;;;;;;2253497;61;20376;-70
2021/09/16 03:34:20;0.00;0.00;0.62;0.00;0.00;0.62;2.33;1.37;;;25.40;43.90;;;;;;2253532;61;20371;-70
2021/09/16 03:37:06;0.00;0.00;0.62;0.00;0.00;0.62;2.40;0.90;;;25.40;43.90;;;;;;2253857;61;20356;-70
2021/09/16 03:39:50;0.00;0.00;0.62;0.00;0.00;0.62;2.80;1.17;;;25.40;43.80;;;;;;2253435;61;20368;-70
2021/09/16 03:42:35;0.00;0.00;0.62;0.00;0.00;0.62;2.10;1.10;;;25.40;43.80;;;;;;2253626;61;20379;-70
2021/09/16 03:45:19;0.00;0.00;0.62;0.00;0.00;0.62;1.53;0.87;;;25.40;43.80;;;;;;2253452;61;20384;-69
2021/09/16 03:48:04;0.00;0.00;0.62;0.00;0.00;0.62;1.80;1.00;;;25.40;43.70;;;;;;2253607;61;20399;-70
2021/09/16 03:50:49;0.00;0.00;0.62;0.00;0.00;0.62;2.13;1.00;;;25.40;43.60;;;;;;2253515;61;20368;-70
2021/09/16 03:53:35;0.00;0.00;0.62;0.00;0.00;0.62;4.03;1.07;;;25.40;43.40;;;;;;2253261;61;20479;-70
2021/09/16 03:56:20;0.00;0.00;0.62;0.00;0.00;0.62;2.00;1.00;;;25.40;43.20;;;;;;2253933;61;20383;-70
2021/09/16 03:59:04;0.00;0.00;0.62;0.00;0.00;0.62;3.60;0.90;;;25.40;43.10;;;;;;2253786;61;20351;-71
2021/09/16 04:01:49;0.00;0.00;0.62;0.00;0.00;0.62;1.40;0.97;;;25.40;43.20;;;;;;2253311;61;20420;-69
2021/09/16 04:04:33;0.00;0.00;0.62;0.00;0.00;0.62;1.70;0.80;;;25.40;43.10;;;;;;2253526;61;20569;-70
2021/09/16 04:07:18;0.00;0.00;0.62;0.00;0.00;0.62;1.70;1.00;;;25.40;43.10;;;;;;2253630;61;20396;-70
2021/09/16 04:10:07;0.00;0.00;0.62;0.00;0.00;0.62;2.23;1.10;;;25.40;43.00;;;;;;2253587;61;20355;-70
2021/09/16 04:12:51;0.00;0.00;0.62;0.00;0.00;0.62;1.70;0.80;;;25.40;42.80;;;;;;2253541;61;20372;-69
2021/09/16 04:15:36;0.00;0.00;0.62;0.00;0.00;0.62;3.23;0.80;;;25.40;42.90;;;;;;2253187;61;20604;-70
2021/09/16 04:18:21;0.00;0.00;0.62;0.00;0.00;0.62;2.93;0.90;;;25.40;42.90;;;;;;2253451;61;20596;-69
2021/09/16 04:21:05;0.00;0.00;0.62;0.00;0.00;0.62;2.87;1.00;;;25.40;42.80;;;;;;2253727;61;20363;-70
2021/09/16 04:23:49;0.00;0.00;0.62;0.00;0.00;0.62;2.10;1.10;;;25.40;42.70;;;;;;2252978;61;20480;-69
2021/09/16 04:26:35;0.00;0.00;0.62;0.00;0.00;0.62;1.90;1.00;;;25.40;42.60;;;;;;2253561;61;20399;-69
2021/09/16 04:29:20;0.00;0.00;0.62;0.00;0.00;0.62;1.30;0.77;;;25.40;42.60;;;;;;2253637;61;20383;-69
2021/09/16 04:32:05;0.00;0.00;0.62;0.00;0.00;0.62;1.80;0.87;;;25.40;42.50;;;;;;2253497;61;20363;-69
2021/09/16 04:34:50;0.00;0.00;0.62;0.00;0.00;0.62;1.87;0.70;;;25.40;42.50;;;;;;2252965;61;20379;-69
2021/09/16 04:37:35;0.00;0.00;0.62;0.00;0.00;0.62;1.20;0.60;;;25.40;42.50;;;;;;2253549;61;20360;-69
2021/09/16 04:40:20;0.00;0.00;0.62;0.00;0.00;0.62;1.90;0.90;;;25.40;42.40;;;;;;2253752;61;20475;-69
2021/09/16 04:43:06;0.00;0.00;0.62;0.00;0.00;0.62;2.73;1.00;;;25.40;42.20;;;;;;2253455;61;20620;-69
2021/09/16 04:45:50;0.00;0.00;0.62;0.00;0.00;0.62;1.87;0.70;;;25.40;42.20;;;;;;2253236;61;20388;-70
2021/09/16 04:48:35;0.00;0.00;0.62;0.00;0.00;0.62;2.53;0.83;;;25.40;42.10;;;;;;2253572;61;20392;-69
2021/09/16 04:51:20;0.00;0.00;0.62;0.00;0.00;0.62;1.40;0.90;;;25.40;42.00;;;;;;2253718;61;20415;-69
2021/09/16 04:54:04;0.00;0.00;0.62;0.00;0.00;0.62;2.43;1.00;;;25.40;42.00;;;;;;2253270;61;20363;-69
2021/09/16 04:56:49;0.00;0.00;0.62;0.00;0.00;0.62;1.63;0.80;;;25.40;41.90;;;;;;2253412;61;20375;-69
2021/09/16 04:59:34;0.00;0.00;0.62;0.00;0.00;0.62;1.60;0.90;;;25.40;42.00;;;;;;2253422;61;20379;-70
2021/09/16 05:02:19;0.00;0.00;0.62;0.00;0.00;0.62;1.50;0.97;;;25.40;42.10;;;;;;2253543;61;20372;-70
2021/09/16 05:05:05;0.00;0.00;0.62;0.00;0.00;0.62;1.40;0.80;;;25.30;41.90;;;;;;2253479;61;20383;-70
2021/09/16 05:07:49;0.00;0.00;0.62;0.00;0.00;0.62;2.03;0.90;;;25.40;41.70;;;;;;2253766;61;20367;-70
2021/09/16 05:10:34;0.00;0.00;0.62;0.00;0.00;0.62;1.50;1.00;;;25.40;41.70;;;;;;2254135;61;20375;-71
2021/09/16 05:13:19;0.00;0.00;0.62;0.00;0.00;0.62;2.73;1.03;;;25.40;41.70;;;;;;2254223;61;20403;-70
2021/09/16 05:16:04;0.00;0.00;0.62;0.00;0.00;0.62;2.17;1.00;;;25.40;41.70;;;;;;2253875;61;20694;-69
2021/09/16 05:18:49;0.00;0.00;0.62;0.00;0.00;0.62;1.60;0.80;;;25.40;41.70;;;;;;2254091;61;20382;-70
2021/09/16 05:21:34;0.00;0.00;0.62;0.00;0.00;0.62;1.30;0.70;;;25.40;41.60;;;;;;2254063;61;20407;-70
2021/09/16 05:24:18;0.00;0.00;0.62;0.00;0.00;0.62;1.60;0.80;;;25.40;41.60;;;;;;2254018;61;20407;-69
2021/09/16 05:27:03;0.00;0.00;0.62;0.00;0.00;0.62;2.93;1.47;;;25.40;41.50;;;;;;2253941;61;20415;-70
2021/09/16 05:29:48;0.00;0.00;0.62;0.00;0.00;0.62;1.70;0.90;;;25.40;41.40;;;;;;2253771;61;20436;-70
2021/09/16 05:32:35;0.00;0.00;0.62;0.00;0.00;0.62;1.90;0.90;;;25.40;41.30;;;;;;2254352;61;20360;-70
2021/09/16 05:35:20;0.00;0.00;0.62;0.00;0.00;0.62;1.70;0.83;;;25.40;41.00;;;;;;2253993;61;20391;-70
2021/09/16 05:38:05;0.00;0.00;0.62;0.00;0.00;0.62;1.40;0.90;;;25.40;40.80;;;;;;2253892;61;20579;-70
2021/09/16 05:40:50;0.00;0.00;0.62;0.00;0.00;0.62;1.37;0.80;;;25.30;40.90;;;;;;2254080;61;20402;-70
2021/09/16 05:43:35;0.00;0.00;0.62;0.00;0.00;0.62;1.80;0.90;;;25.30;41.00;;;;;;2253844;61;20382;-69
2021/09/16 05:46:19;0.00;0.00;0.62;0.00;0.00;0.62;1.30;0.70;;;25.40;41.20;;;;;;2254032;61;20535;-69
2021/09/16 05:49:05;0.00;0.00;0.62;0.00;0.00;0.62;3.20;0.97;;;25.40;41.30;;;;;;2253826;61;20598;-69
2021/09/16 05:51:50;0.00;0.00;0.62;0.00;0.00;0.62;2.20;1.00;;;25.40;41.30;;;;;;2253685;61;20442;-70
2021/09/16 05:54:34;0.00;0.00;0.62;0.00;0.00;0.62;1.47;0.77;;;25.40;41.30;;;;;;2254166;61;20812;-70
2021/09/16 05:57:19;0.00;0.00;0.62;0.00;0.00;0.62;1.33;0.97;;;25.40;41.30;;;;;;2254097;61;20395;-70
2021/09/16 06:00:06;0.00;0.00;0.62;0.00;0.00;0.62;1.70;1.10;;;25.40;41.30;;;;;;2253656;61;20363;-70
2021/09/16 06:02:51;0.00;0.00;0.62;0.00;0.00;0.62;2.20;1.00;;;25.40;41.20;;;;;;2253943;61;20368;-70
2021/09/16 06:05:37;0.00;0.00;0.62;0.00;0.00;0.62;3.67;1.00;;;25.40;41.00;;;;;;2253837;61;20407;-70
2021/09/16 06:08:22;0.00;0.00;0.62;0.00;0.00;0.62;1.40;0.83;;;25.40;40.90;;;;;;2253964;61;20368;-70
2021/09/16 06:11:06;0.00;0.00;0.62;0.00;0.00;0.62;2.10;0.80;;;25.40;40.80;;;;;;2253713;61;20392;-69
2021/09/16 06:13:51;0.00;0.00;0.62;0.00;0.00;0.62;2.83;1.10;;;25.40;40.80;;;;;;2253856;61;20410;-70
2021/09/16 06:16:35;0.00;0.00;0.62;0.00;0.00;0.62;2.33;0.93;;;25.30;40.70;;;;;;2253986;61;20435;-70
2021/09/16 06:19:20;0.00;0.00;0.62;0.00;0.00;0.62;1.83;0.80;;;25.30;40.70;;;;;;2253708;61;20368;-70
2021/09/16 06:22:06;0.00;0.00;0.62;0.00;0.00;0.62;2.90;0.90;;;25.40;40.80;;;;;;2253670;61;20368;-70
2021/09/16 06:24:50;0.00;0.00;0.62;0.00;0.00;0.62;2.27;1.03;;;25.40;40.80;;;;;;2253747;61;20387;-69
2021/09/16 06:27:35;0.00;0.00;0.62;0.00;0.00;0.62;1.80;1.00;;;25.30;40.80;;;;;;2253923;61;20372;-69
2021/09/16 06:30:20;0.00;0.00;0.62;0.00;0.00;0.62;2.00;1.03;;;25.40;40.90;;;;;;2253906;61;20400;-69
2021/09/16 06:33:04;0.00;0.00;0.62;0.00;0.00;0.62;2.33;0.90;;;25.40;41.60;;;;;;2253784;61;20807;-70
2021/09/16 06:35:49;0.00;0.00;0.62;0.00;0.00;0.62;1.80;0.80;;;25.40;40.90;;;;;;2253753;61;20395;-69
2021/09/16 06:38:35;0.00;0.00;0.62;0.00;0.00;0.62;1.97;1.00;;;25.30;40.90;;;;;;2253641;61;20368;-70
2021/09/16 06:41:19;0.00;0.00;0.62;0.00;0.00;0.62;3.10;1.03;;;25.40;40.80;;;;;;2253764;61;20735;-70
2021/09/16 06:44:04;0.00;0.00;0.62;0.00;0.00;0.62;2.63;0.90;;;25.40;40.80;;;;;;2253402;61;20360;-70
2021/09/16 06:46:49;0.00;0.00;0.62;0.00;0.00;0.62;2.17;0.80;;;25.40;40.80;;;;;;2253809;61;20396;-69
2021/09/16 06:49:39;0.00;0.00;0.62;0.00;0.00;0.62;2.00;1.00;;;25.40;40.80;;;;;;2253959;61;20801;-69
2021/09/16 06:52:24;0.00;0.00;0.62;0.00;0.00;0.62;1.60;0.90;;;25.40;40.80;;;;;;2253627;61;20731;-69
2021/09/16 06:55:10;0.00;0.00;0.62;0.00;0.00;0.62;4.00;1.07;;;25.40;40.90;;;;;;2253914;61;20430;-73
2021/09/16 06:57:55;0.00;0.00;0.62;0.00;0.00;0.62;1.70;1.10;;;25.40;40.40;;;;;;2253994;61;20387;-67
2021/09/16 07:00:39;0.00;0.00;0.62;0.00;0.00;0.62;2.37;1.23;;;25.40;40.10;;;;;;2253747;61;20400;-70
2021/09/16 07:03:23;0.00;0.00;0.62;0.00;0.00;0.62;2.20;1.00;;;25.40;39.60;;;;;;2253640;61;20432;-71
2021/09/16 07:06:08;0.00;0.00;0.62;0.00;0.00;0.62;1.50;0.87;;;25.30;39.40;;;;;;2253373;61;20431;-68
2021/09/16 07:08:53;0.00;0.00;0.62;0.00;0.00;0.62;2.47;1.30;;;25.30;39.30;;;;;;2253360;61;20440;-74
2021/09/16 07:14:30;0.00;0.00;0.62;0.00;0.00;0.62;6.47;1.17;;;25.20;39.90;;;;;;2389761;56;20797;-71
2021/09/16 07:17:14;0.00;0.00;0.62;0.00;0.00;0.62;4.77;1.07;;;25.10;39.30;;;;;;2246144;61;20489;-69
2021/09/16 07:19:59;0.00;0.00;0.62;0.00;0.00;0.62;4.50;1.33;;;25.10;39.50;;;;;;2246075;61;20362;-68
2021/09/16 07:22:44;0.00;0.00;0.62;0.00;0.00;0.62;3.10;1.13;;;25.10;39.90;;;;;;2244101;61;20373;-67
2021/09/16 07:25:29;0.00;0.00;0.62;0.00;0.00;0.62;3.03;1.00;;;25.10;39.90;;;;;;2246080;61;20421;-68
2021/09/16 07:28:13;0.00;0.00;0.62;0.00;0.00;0.62;2.50;1.30;;;25.10;40.00;;;;;;2245431;61;20385;-67
2021/09/16 07:30:59;0.00;0.00;0.62;0.00;0.00;0.62;3.97;1.00;;;25.10;39.90;;;;;;2245764;61;20365;-65
2021/09/16 07:33:44;0.00;0.00;0.62;0.00;0.00;0.62;2.13;1.30;;;25.10;39.90;;;;;;2246028;61;20686;-70
2021/09/16 07:36:29;0.00;0.00;0.62;0.00;0.00;0.62;1.77;0.80;;;25.10;40.00;;;;;;2245423;61;20414;-68
2021/09/16 07:39:16;0.00;0.00;0.62;0.00;0.00;0.62;3.00;1.30;;;25.10;39.90;;;;;;2246343;61;20361;-69
2021/09/16 07:42:00;0.00;0.00;0.62;0.00;0.00;0.62;3.30;1.20;;;25.10;40.10;;;;;;2245728;61;20581;-69
2021/09/16 07:44:45;0.00;0.00;0.62;0.00;0.00;0.62;2.80;1.23;;;25.10;40.00;;;;;;2244599;61;20477;-66
2021/09/16 07:47:31;0.00;0.00;0.62;0.00;0.00;0.62;2.20;1.00;;;25.10;40.00;;;;;;2246176;61;20385;-67
2021/09/16 07:50:16;0.00;0.00;0.62;0.00;0.00;0.62;1.40;0.80;;;25.20;40.00;;;;;;2245498;61;20386;-69
2021/09/16 07:53:00;0.00;0.00;0.62;0.00;0.00;0.62;6.40;1.87;;;25.20;40.00;;;;;;2245871;61;20446;-66
2021/09/16 07:55:47;0.00;0.00;0.62;0.00;0.00;0.62;2.37;1.30;;;25.20;40.00;;;;;;2246188;61;20381;-68
2021/09/16 07:58:32;0.00;0.00;0.62;0.00;0.00;0.62;2.17;1.10;;;25.20;40.00;;;;;;2245396;61;20487;-70
2021/09/16 08:01:17;0.00;0.00;0.62;0.00;0.00;0.62;2.47;1.10;;;25.20;40.00;;;;;;2246133;61;20358;-69
2021/09/16 08:04:03;0.00;0.00;0.62;0.00;0.00;0.62;2.40;1.03;;;25.20;40.00;;;;;;2245861;61;20490;-66
2021/09/16 08:06:48;0.00;0.00;0.62;0.00;0.00;0.62;3.00;1.60;;;25.20;40.00;;;;;;2245327;61;20456;-67
2021/09/16 08:09:32;0.00;0.00;0.62;0.00;0.00;0.62;1.67;0.90;;;25.20;40.70;;;;;;2246082;61;20349;-67
2021/09/16 08:12:17;0.00;0.00;0.62;0.00;0.00;0.62;1.70;1.10;;;25.20;40.00;;;;;;2245541;61;20374;-74
2021/09/16 08:15:04;0.00;0.00;0.62;0.00;0.00;0.62;2.60;1.30;;;25.20;40.00;;;;;;2245601;61;20413;-68
2021/09/16 08:17:49;0.00;0.00;0.62;0.00;0.00;0.62;1.63;1.03;;;25.20;40.00;;;;;;2246031;61;20632;-70
2021/09/16 08:20:40;0.00;0.00;0.62;0.00;0.00;0.62;3.30;1.07;;;25.20;40.20;;;;;;2245464;61;20358;-70
2021/09/16 08:23:25;0.00;0.00;0.62;0.00;0.00;0.62;3.27;1.20;;;25.20;40.20;;;;;;2245824;61;20435;-68
2021/09/16 08:26:10;0.00;0.00;0.62;0.00;0.00;0.62;3.70;1.50;;;25.20;40.20;;;;;;2245789;61;20784;-64
2021/09/16 08:28:54;0.00;0.00;0.62;0.00;0.00;0.62;4.43;1.90;;;25.30;40.10;;;;;;2245112;61;20401;-63
2021/09/16 08:31:43;0.00;0.00;0.62;0.00;0.00;0.62;2.27;1.43;;;25.20;40.00;;;;;;2245915;61;20363;-65
2021/09/16 08:34:29;0.00;0.00;0.62;0.00;0.00;0.62;3.57;1.33;;;25.20;40.00;;;;;;2245531;61;20373;-67
2021/09/16 08:37:15;0.00;0.00;0.62;0.00;0.00;0.62;4.17;1.60;;;25.20;40.00;;;;;;2245666;61;20568;-67
2021/09/16 08:39:59;0.00;0.00;0.62;0.00;0.00;0.62;3.40;1.30;;;25.30;40.10;;;;;;2245803;61;20597;-67
2021/09/16 08:42:45;0.00;0.00;0.62;0.00;0.00;0.62;1.83;1.10;;;25.30;39.90;;;;;;2245262;61;20372;-64
2021/09/16 08:45:29;0.00;0.00;0.62;0.00;0.00;0.62;2.10;1.20;;;25.20;39.80;;;;;;2245585;61;20442;-67
2021/09/16 08:48:14;0.00;0.00;0.62;0.00;0.00;0.62;2.73;1.37;;;25.20;40.00;;;;;;2245549;61;20397;-68
2021/09/16 08:50:59;0.00;0.00;0.62;0.00;0.00;0.62;4.27;1.67;;;25.20;40.00;;;;;;2245044;61;20774;-63
2021/09/16 08:53:46;0.00;0.00;0.62;0.00;0.00;0.62;2.80;1.60;;;25.20;40.00;;;;;;2245739;61;20444;-65
2021/09/16 08:56:31;0.00;0.00;0.62;0.00;0.00;0.62;3.20;1.47;;;25.20;40.00;;;;;;2245991;61;20369;-67
2021/09/16 08:59:15;0.00;0.00;0.62;0.00;0.00;0.62;1.70;1.10;;;25.20;40.00;;;;;;2245485;61;20382;-66
2021/09/16 09:02:01;0.00;0.00;0.62;0.00;0.00;0.62;2.50;1.20;;;25.20;40.00;;;;;;2245810;61;20637;-65
2021/09/16 09:04:45;0.00;0.00;0.62;0.00;0.00;0.62;1.90;1.30;;;25.20;40.00;;;;;;2245098;61;20389;-68
2021/09/16 09:07:37;0.00;0.00;0.62;0.00;0.00;0.62;3.37;1.60;;;25.20;40.00;;;;;;2245667;61;20612;-63
2021/09/16 09:10:36;0.00;0.00;0.62;0.00;0.00;0.62;2.33;1.20;;;25.10;40.00;;;;;;2245912;61;20721;-69
2021/09/16 09:13:30;0.00;0.00;0.62;0.00;0.00;0.62;2.17;1.40;;;25.10;40.20;;;;;;2244937;61;20358;-67
2021/09/16 09:16:15;0.00;0.00;0.62;0.00;0.00;0.62;2.67;1.40;;;25.10;40.40;;;;;;2245764;61;20385;-65
2021/09/16 09:19:12;0.00;0.00;0.62;0.00;0.00;0.62;2.70;1.17;;;25.10;40.50;;;;;;2245458;61;20364;-62
2021/09/16 09:22:00;0.00;0.00;0.62;0.00;0.00;0.62;2.20;1.23;;;25.10;40.50;;;;;;2245570;61;20382;-66
2021/09/16 09:24:47;0.00;0.00;0.62;0.00;0.00;0.62;5.20;1.77;;;25.10;40.60;;;;;;2245717;61;20639;-65
2021/09/16 09:27:37;0.00;0.00;0.62;0.00;0.00;0.62;2.07;1.27;;;25.20;40.50;;;;;;2245109;61;20674;-69
2021/09/16 09:30:25;0.00;0.00;0.62;0.00;0.00;0.62;2.20;1.33;;;25.20;40.50;;;;;;2245864;61;20361;-65
2021/09/16 09:33:09;0.00;0.00;0.62;0.00;0.00;0.62;5.57;1.40;;;25.20;40.40;;;;;;2245796;61;20582;-64
2021/09/16 09:35:54;0.00;0.00;0.62;0.00;0.00;0.62;2.67;1.50;;;25.20;40.40;;;;;;2244894;61;20418;-62
2021/09/16 09:38:58;0.00;0.00;0.62;0.00;0.00;0.62;2.57;1.60;;;25.20;40.40;;;;;;2245831;61;20362;-65
2021/09/16 09:41:42;0.00;0.00;0.62;0.00;0.00;0.62;2.47;1.57;;;25.10;40.30;;;;;;2245091;61;20381;-64
2021/09/16 09:44:34;0.00;0.00;0.62;0.00;0.00;0.62;3.00;1.50;;;25.20;40.30;;;;;;2245441;61;20476;-65
2021/09/16 09:47:35;0.00;0.00;0.62;0.00;0.00;0.62;2.43;1.60;;;25.10;40.20;;;;;;2245801;61;20380;-62
2021/09/16 09:50:23;0.00;0.00;0.62;0.00;0.00;0.62;2.90;1.90;;;25.10;40.40;;;;;;2244928;61;20435;-63
2021/09/16 09:53:13;0.00;0.00;0.62;0.00;0.00;0.62;3.47;1.97;;;25.10;40.40;;;;;;2246409;61;20390;-63
2021/09/16 09:55:58;0.00;0.00;0.62;0.00;0.00;0.62;3.50;1.97;;;25.10;40.30;;;;;;2245872;61;20377;-64
2021/09/16 09:58:44;0.00;0.00;0.62;0.00;0.00;0.62;3.30;2.17;;;25.10;40.10;;;;;;2245805;61;20374;-64
2021/09/16 10:01:33;0.00;0.00;0.62;0.00;0.00;0.62;2.63;1.83;;;25.10;39.90;;;;;;2246499;61;20366;-62
2021/09/16 10:04:26;0.00;0.00;0.62;0.00;0.00;0.62;4.30;2.07;;;25.10;39.90;;;;;;2245439;61;20506;-65
2021/09/16 10:07:27;0.00;0.00;0.62;0.00;0.00;0.62;2.47;1.70;;;25.10;40.00;;;;;;2246439;61;20422;-63
2021/09/16 10:10:14;0.00;0.00;0.62;0.00;0.00;0.62;3.40;2.40;;;25.10;40.20;;;;;;2246325;61;20445;-65
2021/09/16 10:12:58;0.00;0.00;0.62;0.00;0.00;0.62;2.70;1.90;;;25.10;40.20;;;;;;2245440;61;20441;-65
2021/09/16 10:15:43;0.00;0.00;0.62;0.00;0.00;0.62;3.73;2.23;;;25.10;40.30;;;;;;2246389;61;20490;-63
2021/09/16 10:18:31;0.00;0.00;0.62;0.00;0.00;0.62;3.47;1.90;;;25.10;40.30;;;;;;2245618;61;20362;-64
2021/09/16 10:21:15;0.00;0.00;0.62;0.00;0.00;0.62;2.53;1.80;;;25.10;40.30;;;;;;2246198;61;20370;-62
2021/09/16 10:24:02;0.00;0.00;0.62;0.00;0.00;0.62;3.40;2.40;;;25.20;40.30;;;;;;2246072;61;20366;-64
2021/09/16 10:26:49;0.00;0.00;0.62;0.00;0.00;0.62;4.80;2.10;;;25.20;40.30;;;;;;2245491;61;20425;-62
2021/09/16 10:29:36;0.00;0.00;0.62;0.00;0.00;0.62;4.63;2.50;;;25.20;40.20;;;;;;2246394;61;20417;-61
2021/09/16 10:32:39;0.00;0.00;0.62;0.00;0.00;0.62;2.80;2.10;;;25.20;40.10;;;;;;2246277;61;20369;-63
2021/09/16 10:35:26;0.00;0.00;0.62;0.00;0.00;0.62;3.77;2.40;;;25.30;40.10;;;;;;2245988;61;20381;-63
2021/09/16 10:38:30;0.00;0.00;0.62;0.00;0.00;0.62;4.17;2.07;;;25.30;40.10;;;;;;2246297;61;20361;-64
2021/09/16 10:41:22;0.00;0.00;0.62;0.00;0.00;0.62;3.70;2.10;;;25.30;40.10;;;;;;2245545;61;20397;-65
2021/09/16 10:44:22;0.00;0.00;0.62;0.00;0.00;0.62;4.00;2.43;;;25.40;40.10;;;;;;2246115;61;20366;-64
2021/09/16 10:47:16;0.00;0.00;0.62;0.00;0.00;0.62;2.50;1.90;;;25.30;40.10;;;;;;2246225;61;20405;-65
2021/09/16 10:50:20;0.00;0.00;0.62;0.00;0.00;0.62;4.37;2.60;;;25.40;40.10;;;;;;2245584;61;20397;-63
2021/09/16 10:53:42;0.00;0.00;0.62;0.00;0.00;0.62;3.20;2.33;;;25.40;40.00;;;;;;2246154;61;20405;-61
2021/09/16 10:56:39;0.00;0.00;0.62;0.00;0.00;0.62;4.67;2.17;;;25.30;40.00;;;;;;2245412;61;20578;-64
2021/09/16 10:59:25;0.00;0.00;0.62;0.00;0.00;0.62;3.63;2.70;;;25.30;40.00;;;;;;2246295;61;20385;-63